sensor_id;sensor_type;location;lat;lon;timestamp;P1;P2;P0
50866;PMS7003;36839;51.946;21.002;2023-05-10T00:02:16;20.00;14.00;12.00
50866;PMS7003;36839;51.946;21.002;2023-05-10T00:04:44;15.00;13.00;11.00
50866;PMS7003;36839;51.946;21.002;2023-05-10T00:07:12;7.00;7.00;3.50
50866;PMS7003;36839;51.946;21.002;2023-05-10T00:09:39;15.00;14.00;10.00
50866;PMS7003;36839;51.946;21.002;2023-05-10T00:12:10;19.50;15.00;12.00
50866;PMS7003;36839;51.946;21.002;2023-05-10T00:14:39;15.00;14.00;10.00
50866;PMS7003;36839;51.946;21.002;2023-05-10T00:17:12;13.00;13.00;9.50
50866;PMS7003;36839;51.946;21.002;2023-05-10T00:19:45;15.00;13.50;10.00
50866;PMS7003;36839;51.946;21.002;2023-05-10T00:22:21;18.00;15.50;10.00
50866;PMS7003;36839;51.946;21.002;2023-05-10T00:24:47;17.50;14.50;12.00
50866;PMS7003;36839;51.946;21.002;2023-05-10T00:27:14;15.00;15.00;12.00
50866;PMS7003;36839;51.946;21.002;2023-05-10T00:29:40;11.33;11.33;9.00
50866;PMS7003;36839;51.946;21.002;2023-05-10T00:32:06;12.00;12.00;10.50
50866;PMS7003;36839;51.946;21.002;2023-05-10T00:34:35;16.00;13.00;11.00
50866;PMS7003;36839;51.946;21.002;2023-05-10T00:37:05;17.50;15.50;12.50
50866;PMS7003;36839;51.946;21.002;2023-05-10T00:39:31;12.00;12.00;9.00
50866;PMS7003;36839;51.946;21.002;2023-05-10T00:42:01;11.50;9.00;7.00
50866;PMS7003;36839;51.946;21.002;2023-05-10T00:44:30;13.00;13.00;9.00
50866;PMS7003;36839;51.946;21.002;2023-05-10T00:46:58;17.00;13.00;9.00
50866;PMS7003;36839;51.946;21.002;2023-05-10T00:49:27;15.00;11.50;8.50
50866;PMS7003;36839;51.946;21.002;2023-05-10T00:51:54;15.00;13.00;9.00
50866;PMS7003;36839;51.946;21.002;2023-05-10T00:54:23;17.00;14.00;9.00
50866;PMS7003;36839;51.946;21.002;2023-05-10T00:56:51;14.00;12.00;8.50
50866;PMS7003;36839;51.946;21.002;2023-05-10T00:59:19;15.00;14.00;9.00
50866;PMS7003;36839;51.946;21.002;2023-05-10T01:01:48;8.00;8.00;8.00
50866;PMS7003;36839;51.946;21.002;2023-05-10T01:04:16;18.00;15.00;12.50
50866;PMS7003;36839;51.946;21.002;2023-05-10T01:06:45;14.00;13.50;11.00
50866;PMS7003;36839;51.946;21.002;2023-05-10T01:09:15;20.00;17.00;13.00
50866;PMS7003;36839;51.946;21.002;2023-05-10T01:11:48;14.50;14.50;12.00
50866;PMS7003;36839;51.946;21.002;2023-05-10T01:14:20;16.00;15.00;10.50
50866;PMS7003;36839;51.946;21.002;2023-05-10T01:16:48;22.00;18.50;13.00
50866;PMS7003;36839;51.946;21.002;2023-05-10T01:19:17;17.00;13.00;9.50
50866;PMS7003;36839;51.946;21.002;2023-05-10T01:25:02;20.00;19.00;15.00
50866;PMS7003;36839;51.946;21.002;2023-05-10T01:33:26;19.50;18.00;13.00
50866;PMS7003;36839;51.946;21.002;2023-05-10T01:36:05;21.00;18.00;14.00
50866;PMS7003;36839;51.946;21.002;2023-05-10T01:38:47;19.00;17.00;13.00
50866;PMS7003;36839;51.946;21.002;2023-05-10T01:44:22;16.00;16.00;12.00
50866;PMS7003;36839;51.946;21.002;2023-05-10T01:47:09;19.00;18.00;12.50
50866;PMS7003;36839;51.946;21.002;2023-05-10T01:49:54;24.00;21.00;15.00
50866;PMS7003;36839;51.946;21.002;2023-05-10T01:52:55;18.50;17.50;13.00
50866;PMS7003;36839;51.946;21.002;2023-05-10T01:55:46;20.00;17.50;14.50
50866;PMS7003;36839;51.946;21.002;2023-05-10T01:58:27;15.00;14.00;12.00
50866;PMS7003;36839;51.946;21.002;2023-05-10T02:01:00;16.50;15.00;11.50
50866;PMS7003;36839;51.946;21.002;2023-05-10T02:03:29;20.00;15.00;11.00
50866;PMS7003;36839;51.946;21.002;2023-05-10T02:06:01;17.00;14.50;11.50
50866;PMS7003;36839;51.946;21.002;2023-05-10T02:08:29;15.33;13.33;10.67
50866;PMS7003;36839;51.946;21.002;2023-05-10T02:10:58;16.00;13.50;12.00
50866;PMS7003;36839;51.946;21.002;2023-05-10T02:13:27;23.00;15.00;11.00
50866;PMS7003;36839;51.946;21.002;2023-05-10T02:15:59;13.00;10.00;6.00
50866;PMS7003;36839;51.946;21.002;2023-05-10T02:18:29;22.00;16.50;13.50
50866;PMS7003;36839;51.946;21.002;2023-05-10T02:20:57;15.00;14.00;12.00
50866;PMS7003;36839;51.946;21.002;2023-05-10T02:23:24;22.50;17.00;12.50
50866;PMS7003;36839;51.946;21.002;2023-05-10T02:25:53;11.00;10.00;5.00
50866;PMS7003;36839;51.946;21.002;2023-05-10T02:28:26;15.50;14.00;11.50
50866;PMS7003;36839;51.946;21.002;2023-05-10T02:30:55;20.00;16.00;12.00
50866;PMS7003;36839;51.946;21.002;2023-05-10T02:33:22;16.50;16.50;11.50
50866;PMS7003;36839;51.946;21.002;2023-05-10T02:35:50;16.00;15.00;12.00
50866;PMS7003;36839;51.946;21.002;2023-05-10T02:38:19;7.00;7.00;4.00
50866;PMS7003;36839;51.946;21.002;2023-05-10T02:40:48;15.00;13.00;10.50
50866;PMS7003;36839;51.946;21.002;2023-05-10T02:43:19;19.00;16.00;13.00
50866;PMS7003;36839;51.946;21.002;2023-05-10T02:45:50;25.50;19.00;15.00
50866;PMS7003;36839;51.946;21.002;2023-05-10T02:48:18;21.00;19.00;13.00
50866;PMS7003;36839;51.946;21.002;2023-05-10T02:50:56;21.50;16.50;11.50
50866;PMS7003;36839;51.946;21.002;2023-05-10T02:53:33;16.00;13.50;10.50
50866;PMS7003;36839;51.946;21.002;2023-05-10T02:56:04;17.00;16.00;12.00
50866;PMS7003;36839;51.946;21.002;2023-05-10T02:58:35;16.00;15.00;12.00
50866;PMS7003;36839;51.946;21.002;2023-05-10T03:01:03;17.50;15.50;12.00
50866;PMS7003;36839;51.946;21.002;2023-05-10T03:03:32;18.00;17.00;12.00
50866;PMS7003;36839;51.946;21.002;2023-05-10T03:05:59;14.50;14.00;12.00
50866;PMS7003;36839;51.946;21.002;2023-05-10T03:08:26;14.00;12.00;10.00
50866;PMS7003;36839;51.946;21.002;2023-05-10T03:11:09;13.50;13.50;11.00
50866;PMS7003;36839;51.946;21.002;2023-05-10T03:16:22;18.50;18.00;14.00
50866;PMS7003;36839;51.946;21.002;2023-05-10T03:19:01;17.00;15.33;13.00
50866;PMS7003;36839;51.946;21.002;2023-05-10T03:22:03;19.33;15.33;11.00
50866;PMS7003;36839;51.946;21.002;2023-05-10T03:24:40;16.00;12.50;9.00
50866;PMS7003;36839;51.946;21.002;2023-05-10T03:27:08;14.50;13.00;9.00
50866;PMS7003;36839;51.946;21.002;2023-05-10T03:29:37;17.50;15.00;10.50
50866;PMS7003;36839;51.946;21.002;2023-05-10T03:32:06;22.00;14.00;11.00
50866;PMS7003;36839;51.946;21.002;2023-05-10T03:34:36;18.00;14.50;12.00
50866;PMS7003;36839;51.946;21.002;2023-05-10T03:37:15;14.50;14.50;11.00
50866;PMS7003;36839;51.946;21.002;2023-05-10T03:39:45;14.00;14.00;12.00
50866;PMS7003;36839;51.946;21.002;2023-05-10T03:42:29;16.00;15.00;11.00
50866;PMS7003;36839;51.946;21.002;2023-05-10T03:44:56;15.00;14.00;11.33
50866;PMS7003;36839;51.946;21.002;2023-05-10T03:47:23;16.00;14.00;11.00
50866;PMS7003;36839;51.946;21.002;2023-05-10T03:49:52;15.00;14.00;11.00
50866;PMS7003;36839;51.946;21.002;2023-05-10T03:52:22;16.00;14.00;11.00
50866;PMS7003;36839;51.946;21.002;2023-05-10T03:54:51;18.50;15.50;12.00
50866;PMS7003;36839;51.946;21.002;2023-05-10T03:57:18;13.00;13.00;10.00
50866;PMS7003;36839;51.946;21.002;2023-05-10T03:59:46;15.00;14.00;11.00
50866;PMS7003;36839;51.946;21.002;2023-05-10T04:02:13;18.00;13.00;11.00
50866;PMS7003;36839;51.946;21.002;2023-05-10T04:04:42;14.00;12.00;10.00
50866;PMS7003;36839;51.946;21.002;2023-05-10T04:07:09;12.00;10.50;8.50
50866;PMS7003;36839;51.946;21.002;2023-05-10T04:09:37;17.00;15.50;12.00
50866;PMS7003;36839;51.946;21.002;2023-05-10T04:12:05;20.50;18.00;15.50
50866;PMS7003;36839;51.946;21.002;2023-05-10T04:14:33;17.00;13.67;11.33
50866;PMS7003;36839;51.946;21.002;2023-05-10T04:17:01;18.00;14.00;11.00
50866;PMS7003;36839;51.946;21.002;2023-05-10T04:19:31;21.00;13.00;11.00
50866;PMS7003;36839;51.946;21.002;2023-05-10T04:21:59;14.00;12.00;9.00
50866;PMS7003;36839;51.946;21.002;2023-05-10T04:24:33;13.00;12.00;9.00
50866;PMS7003;36839;51.946;21.002;2023-05-10T04:27:01;14.50;13.00;10.50
50866;PMS7003;36839;51.946;21.002;2023-05-10T04:29:28;15.00;11.00;10.00
50866;PMS7003;36839;51.946;21.002;2023-05-10T04:31:57;13.67;12.00;10.00
50866;PMS7003;36839;51.946;21.002;2023-05-10T04:34:25;15.00;14.00;12.00
50866;PMS7003;36839;51.946;21.002;2023-05-10T04:36:51;16.00;13.00;10.00
50866;PMS7003;36839;51.946;21.002;2023-05-10T04:39:20;21.00;14.00;11.00
50866;PMS7003;36839;51.946;21.002;2023-05-10T04:41:47;18.00;16.00;12.00
50866;PMS7003;36839;51.946;21.002;2023-05-10T04:44:15;16.00;12.00;10.00
50866;PMS7003;36839;51.946;21.002;2023-05-10T04:46:43;14.50;13.50;11.50
50866;PMS7003;36839;51.946;21.002;2023-05-10T04:49:11;15.50;15.50;11.50
50866;PMS7003;36839;51.946;21.002;2023-05-10T04:51:40;14.50;12.00;8.00
50866;PMS7003;36839;51.946;21.002;2023-05-10T04:54:08;19.00;18.00;11.50
50866;PMS7003;36839;51.946;21.002;2023-05-10T04:56:40;16.00;13.50;11.00
50866;PMS7003;36839;51.946;21.002;2023-05-10T04:59:08;14.00;14.00;9.00
50866;PMS7003;36839;51.946;21.002;2023-05-10T05:01:44;14.50;12.00;9.00
50866;PMS7003;36839;51.946;21.002;2023-05-10T05:04:14;13.50;13.50;9.50
50866;PMS7003;36839;51.946;21.002;2023-05-10T05:06:43;15.00;14.00;10.00
50866;PMS7003;36839;51.946;21.002;2023-05-10T05:09:09;13.00;12.00;9.00
50866;PMS7003;36839;51.946;21.002;2023-05-10T05:11:36;18.00;15.00;12.00
50866;PMS7003;36839;51.946;21.002;2023-05-10T05:14:03;13.50;13.50;11.50
50866;PMS7003;36839;51.946;21.002;2023-05-10T05:16:30;13.00;10.00;8.00
50866;PMS7003;36839;51.946;21.002;2023-05-10T05:18:59;10.00;10.00;8.50
50866;PMS7003;36839;51.946;21.002;2023-05-10T05:22:00;10.33;8.00;6.00
50866;PMS7003;36839;51.946;21.002;2023-05-10T05:24:34;9.67;8.00;6.33
50866;PMS7003;36839;51.946;21.002;2023-05-10T05:27:05;12.00;11.00;9.00
50866;PMS7003;36839;51.946;21.002;2023-05-10T05:29:37;6.67;4.00;1.00
50866;PMS7003;36839;51.946;21.002;2023-05-10T05:32:05;17.00;16.50;10.00
50866;PMS7003;36839;51.946;21.002;2023-05-10T05:34:32;10.50;10.50;8.00
50866;PMS7003;36839;51.946;21.002;2023-05-10T05:37:06;12.00;11.00;9.00
50866;PMS7003;36839;51.946;21.002;2023-05-10T05:39:35;12.50;12.50;10.00
50866;PMS7003;36839;51.946;21.002;2023-05-10T05:42:07;13.00;12.00;9.00
50866;PMS7003;36839;51.946;21.002;2023-05-10T05:44:40;14.00;11.50;10.00
50866;PMS7003;36839;51.946;21.002;2023-05-10T05:47:14;16.50;13.00;9.00
50866;PMS7003;36839;51.946;21.002;2023-05-10T05:49:46;14.00;11.50;10.00
50866;PMS7003;36839;51.946;21.002;2023-05-10T05:52:14;14.00;12.00;9.00
50866;PMS7003;36839;51.946;21.002;2023-05-10T05:56:14;8.00;8.00;6.00
50866;PMS7003;36839;51.946;21.002;2023-05-10T05:58:43;15.00;13.00;10.00
50866;PMS7003;36839;51.946;21.002;2023-05-10T06:01:17;11.50;7.00;5.50
50866;PMS7003;36839;51.946;21.002;2023-05-10T06:03:44;10.50;9.00;8.00
50866;PMS7003;36839;51.946;21.002;2023-05-10T06:06:14;12.00;9.00;7.00
50866;PMS7003;36839;51.946;21.002;2023-05-10T06:08:41;13.00;12.00;9.00
50866;PMS7003;36839;51.946;21.002;2023-05-10T06:11:11;13.50;12.50;8.50
50866;PMS7003;36839;51.946;21.002;2023-05-10T06:13:39;17.50;13.00;9.50
50866;PMS7003;36839;51.946;21.002;2023-05-10T06:16:07;11.00;10.00;7.00
50866;PMS7003;36839;51.946;21.002;2023-05-10T06:18:34;17.50;13.00;9.00
50866;PMS7003;36839;51.946;21.002;2023-05-10T06:21:02;10.00;10.00;8.00
50866;PMS7003;36839;51.946;21.002;2023-05-10T06:23:32;9.00;9.00;7.00
50866;PMS7003;36839;51.946;21.002;2023-05-10T06:26:02;9.50;9.50;8.00
50866;PMS7003;36839;51.946;21.002;2023-05-10T06:28:44;12.50;9.50;8.00
50866;PMS7003;36839;51.946;21.002;2023-05-10T06:31:12;10.00;8.50;7.00
50866;PMS7003;36839;51.946;21.002;2023-05-10T06:33:44;9.00;8.00;7.00
50866;PMS7003;36839;51.946;21.002;2023-05-10T06:36:15;12.00;11.00;8.00
50866;PMS7003;36839;51.946;21.002;2023-05-10T06:38:53;13.00;12.00;8.00
50866;PMS7003;36839;51.946;21.002;2023-05-10T06:41:21;13.00;9.00;7.00
50866;PMS7003;36839;51.946;21.002;2023-05-10T06:43:53;11.50;9.50;8.00
50866;PMS7003;36839;51.946;21.002;2023-05-10T06:46:24;11.00;8.50;7.50
50866;PMS7003;36839;51.946;21.002;2023-05-10T06:48:51;8.00;8.00;6.00
50866;PMS7003;36839;51.946;21.002;2023-05-10T06:51:20;10.00;10.00;7.00
50866;PMS7003;36839;51.946;21.002;2023-05-10T06:53:49;12.00;10.00;7.00
50866;PMS7003;36839;51.946;21.002;2023-05-10T06:56:20;7.00;7.00;6.00
50866;PMS7003;36839;51.946;21.002;2023-05-10T06:58:49;10.00;9.00;7.50
50866;PMS7003;36839;51.946;21.002;2023-05-10T07:01:18;12.00;10.00;7.00
50866;PMS7003;36839;51.946;21.002;2023-05-10T07:03:47;10.00;8.00;7.00
50866;PMS7003;36839;51.946;21.002;2023-05-10T07:06:14;9.00;9.00;7.00
50866;PMS7003;36839;51.946;21.002;2023-05-10T07:08:42;7.00;7.00;6.00
50866;PMS7003;36839;51.946;21.002;2023-05-10T07:11:13;7.00;6.00;4.00
50866;PMS7003;36839;51.946;21.002;2023-05-10T07:13:40;7.00;7.00;5.00
50866;PMS7003;36839;51.946;21.002;2023-05-10T07:16:16;9.00;7.00;6.00
50866;PMS7003;36839;51.946;21.002;2023-05-10T07:18:45;6.00;6.00;5.00
50866;PMS7003;36839;51.946;21.002;2023-05-10T07:21:14;7.50;7.00;5.00
50866;PMS7003;36839;51.946;21.002;2023-05-10T07:23:44;5.00;5.00;5.00
50866;PMS7003;36839;51.946;21.002;2023-05-10T07:26:15;7.00;7.00;6.00
50866;PMS7003;36839;51.946;21.002;2023-05-10T07:28:44;7.00;5.00;4.00
50866;PMS7003;36839;51.946;21.002;2023-05-10T07:33:41;8.00;4.00;4.00
50866;PMS7003;36839;51.946;21.002;2023-05-10T07:36:09;10.00;7.00;4.00
50866;PMS7003;36839;51.946;21.002;2023-05-10T07:38:39;5.33;5.33;4.00
50866;PMS7003;36839;51.946;21.002;2023-05-10T07:41:07;5.00;5.00;3.00
50866;PMS7003;36839;51.946;21.002;2023-05-10T07:43:36;5.00;5.00;5.00
50866;PMS7003;36839;51.946;21.002;2023-05-10T07:46:11;7.00;4.00;3.67
50866;PMS7003;36839;51.946;21.002;2023-05-10T07:48:45;6.00;6.00;5.00
50866;PMS7003;36839;51.946;21.002;2023-05-10T07:51:12;7.00;5.00;4.00
50866;PMS7003;36839;51.946;21.002;2023-05-10T07:53:39;4.50;4.50;4.00
50866;PMS7003;36839;51.946;21.002;2023-05-10T07:58:55;5.00;4.00;3.00
50866;PMS7003;36839;51.946;21.002;2023-05-10T08:01:23;1.50;1.00;0.00
50866;PMS7003;36839;51.946;21.002;2023-05-10T08:03:51;5.00;5.00;5.00
50866;PMS7003;36839;51.946;21.002;2023-05-10T08:06:21;6.00;5.00;4.00
50866;PMS7003;36839;51.946;21.002;2023-05-10T08:08:51;3.00;3.00;3.00
50866;PMS7003;36839;51.946;21.002;2023-05-10T08:11:21;3.00;3.00;1.50
50866;PMS7003;36839;51.946;21.002;2023-05-10T08:13:51;7.50;4.00;3.50
50866;PMS7003;36839;51.946;21.002;2023-05-10T08:16:19;4.00;4.00;3.00
50866;PMS7003;36839;51.946;21.002;2023-05-10T08:18:47;3.33;3.33;2.00
50866;PMS7003;36839;51.946;21.002;2023-05-10T08:21:16;4.00;4.00;3.00
50866;PMS7003;36839;51.946;21.002;2023-05-10T08:23:44;5.00;3.00;3.00
50866;PMS7003;36839;51.946;21.002;2023-05-10T08:26:12;4.00;4.00;3.00
50866;PMS7003;36839;51.946;21.002;2023-05-10T08:28:40;4.50;4.50;3.50
50866;PMS7003;36839;51.946;21.002;2023-05-10T08:31:08;3.00;3.00;2.50
50866;PMS7003;36839;51.946;21.002;2023-05-10T08:33:37;4.00;4.00;4.00
50866;PMS7003;36839;51.946;21.002;2023-05-10T08:36:05;4.50;3.00;3.00
50866;PMS7003;36839;51.946;21.002;2023-05-10T08:38:34;4.00;3.50;3.00
50866;PMS7003;36839;51.946;21.002;2023-05-10T08:41:03;6.00;4.00;4.00
50866;PMS7003;36839;51.946;21.002;2023-05-10T08:43:33;4.00;4.00;4.00
50866;PMS7003;36839;51.946;21.002;2023-05-10T08:46:06;4.00;4.00;3.00
50866;PMS7003;36839;51.946;21.002;2023-05-10T08:48:36;3.00;3.00;1.00
50866;PMS7003;36839;51.946;21.002;2023-05-10T08:51:05;4.00;3.00;2.00
50866;PMS7003;36839;51.946;21.002;2023-05-10T08:53:35;4.00;4.00;4.00
50866;PMS7003;36839;51.946;21.002;2023-05-10T08:56:08;2.00;2.00;2.00
50866;PMS7003;36839;51.946;21.002;2023-05-10T08:58:37;1.50;1.50;1.00
50866;PMS7003;36839;51.946;21.002;2023-05-10T09:01:05;6.00;4.00;3.00
50866;PMS7003;36839;51.946;21.002;2023-05-10T09:03:33;5.50;3.50;2.50
50866;PMS7003;36839;51.946;21.002;2023-05-10T09:06:04;5.00;3.33;3.00
50866;PMS7003;36839;51.946;21.002;2023-05-10T09:08:34;7.00;4.00;3.00
50866;PMS7003;36839;51.946;21.002;2023-05-10T09:11:11;4.00;4.00;2.50
50866;PMS7003;36839;51.946;21.002;2023-05-10T09:13:41;3.00;3.00;2.00
50866;PMS7003;36839;51.946;21.002;2023-05-10T09:16:10;3.33;2.67;2.67
50866;PMS7003;36839;51.946;21.002;2023-05-10T09:18:39;5.50;5.50;4.50
50866;PMS7003;36839;51.946;21.002;2023-05-10T09:21:09;7.00;5.00;4.50
50866;PMS7003;36839;51.946;21.002;2023-05-10T09:23:43;2.33;2.33;2.33
50866;PMS7003;36839;51.946;21.002;2023-05-10T09:26:12;6.00;5.00;3.50
50866;PMS7003;36839;51.946;21.002;2023-05-10T09:28:53;4.00;4.00;3.50
50866;PMS7003;36839;51.946;21.002;2023-05-10T09:31:45;3.00;3.00;3.00
50866;PMS7003;36839;51.946;21.002;2023-05-10T09:34:18;4.00;4.00;3.00
50866;PMS7003;36839;51.946;21.002;2023-05-10T09:36:54;4.00;4.00;4.00
50866;PMS7003;36839;51.946;21.002;2023-05-10T09:39:31;5.00;3.00;3.00
50866;PMS7003;36839;51.946;21.002;2023-05-10T09:41:59;8.00;4.00;4.00
50866;PMS7003;36839;51.946;21.002;2023-05-10T09:44:35;6.00;4.00;3.00
50866;PMS7003;36839;51.946;21.002;2023-05-10T09:47:07;5.00;3.00;3.00
50866;PMS7003;36839;51.946;21.002;2023-05-10T09:49:36;2.00;2.00;2.00
50866;PMS7003;36839;51.946;21.002;2023-05-10T09:52:06;7.50;3.00;2.50
50866;PMS7003;36839;51.946;21.002;2023-05-10T09:54:38;5.00;5.00;4.00
50866;PMS7003;36839;51.946;21.002;2023-05-10T09:57:20;4.00;4.00;3.00
50866;PMS7003;36839;51.946;21.002;2023-05-10T09:59:53;4.00;4.00;3.00
50866;PMS7003;36839;51.946;21.002;2023-05-10T10:02:21;2.50;2.50;2.50
50866;PMS7003;36839;51.946;21.002;2023-05-10T10:04:57;3.33;3.33;3.00
50866;PMS7003;36839;51.946;21.002;2023-05-10T10:07:27;6.00;4.00;3.50
50866;PMS7003;36839;51.946;21.002;2023-05-10T10:09:57;3.00;3.00;3.00
50866;PMS7003;36839;51.946;21.002;2023-05-10T10:12:26;4.50;3.00;3.00
50866;PMS7003;36839;51.946;21.002;2023-05-10T10:15:08;5.00;5.00;4.00
50866;PMS7003;36839;51.946;21.002;2023-05-10T10:17:37;4.00;4.00;3.00
50866;PMS7003;36839;51.946;21.002;2023-05-10T10:20:08;4.50;4.00;3.00
50866;PMS7003;36839;51.946;21.002;2023-05-10T10:22:39;7.50;5.50;4.50
50866;PMS7003;36839;51.946;21.002;2023-05-10T10:25:08;4.00;3.00;2.00
50866;PMS7003;36839;51.946;21.002;2023-05-10T10:30:51;6.00;5.00;4.00
50866;PMS7003;36839;51.946;21.002;2023-05-10T10:36:24;3.00;3.00;2.50
50866;PMS7003;36839;51.946;21.002;2023-05-10T10:41:35;4.50;4.50;3.50
50866;PMS7003;36839;51.946;21.002;2023-05-10T10:50:02;4.00;3.00;2.50
50866;PMS7003;36839;51.946;21.002;2023-05-10T10:52:33;5.00;4.00;3.00
50866;PMS7003;36839;51.946;21.002;2023-05-10T11:05:57;4.00;4.00;4.00
50866;PMS7003;36839;51.946;21.002;2023-05-10T11:08:43;4.00;4.00;3.00
50866;PMS7003;36839;51.946;21.002;2023-05-10T11:13:44;3.50;3.50;3.50
50866;PMS7003;36839;51.946;21.002;2023-05-10T11:21:23;5.00;5.00;3.00
50866;PMS7003;36839;51.946;21.002;2023-05-10T11:23:51;5.50;4.00;3.00
50866;PMS7003;36839;51.946;21.002;2023-05-10T11:26:30;4.00;4.00;3.00
50866;PMS7003;36839;51.946;21.002;2023-05-10T11:29:02;5.00;3.00;3.00
50866;PMS7003;36839;51.946;21.002;2023-05-10T11:31:32;4.00;4.00;3.00
50866;PMS7003;36839;51.946;21.002;2023-05-10T11:34:00;4.00;4.00;4.00
50866;PMS7003;36839;51.946;21.002;2023-05-10T11:36:34;3.67;3.00;2.67
50866;PMS7003;36839;51.946;21.002;2023-05-10T11:39:03;4.00;4.00;3.00
50866;PMS7003;36839;51.946;21.002;2023-05-10T11:41:35;5.00;5.00;4.00
50866;PMS7003;36839;51.946;21.002;2023-05-10T11:44:05;7.00;5.00;5.00
50866;PMS7003;36839;51.946;21.002;2023-05-10T11:46:33;4.00;4.00;3.00
50866;PMS7003;36839;51.946;21.002;2023-05-10T11:49:04;4.00;4.00;3.00
50866;PMS7003;36839;51.946;21.002;2023-05-10T11:51:34;5.00;4.00;3.00
50866;PMS7003;36839;51.946;21.002;2023-05-10T11:54:06;5.00;3.50;3.00
50866;PMS7003;36839;51.946;21.002;2023-05-10T11:56:40;6.00;4.00;4.00
50866;PMS7003;36839;51.946;21.002;2023-05-10T11:59:09;3.00;3.00;2.00
50866;PMS7003;36839;51.946;21.002;2023-05-10T12:01:41;5.00;5.00;4.00
50866;PMS7003;36839;51.946;21.002;2023-05-10T12:04:10;14.00;9.50;8.00
50866;PMS7003;36839;51.946;21.002;2023-05-10T12:06:41;5.00;4.00;3.00
50866;PMS7003;36839;51.946;21.002;2023-05-10T12:09:11;5.50;5.00;4.00
50866;PMS7003;36839;51.946;21.002;2023-05-10T12:11:38;6.00;5.00;4.00
50866;PMS7003;36839;51.946;21.002;2023-05-10T12:14:13;6.00;4.00;4.00
50866;PMS7003;36839;51.946;21.002;2023-05-10T12:16:42;5.00;5.00;3.50
50866;PMS7003;36839;51.946;21.002;2023-05-10T12:19:10;3.33;3.33;3.00
50866;PMS7003;36839;51.946;21.002;2023-05-10T12:21:37;0.00;0.00;0.00
50866;PMS7003;36839;51.946;21.002;2023-05-10T12:24:06;3.00;3.00;3.00
50866;PMS7003;36839;51.946;21.002;2023-05-10T12:26:36;4.00;4.00;4.00
50866;PMS7003;36839;51.946;21.002;2023-05-10T12:29:13;4.00;4.00;3.00
50866;PMS7003;36839;51.946;21.002;2023-05-10T12:31:54;6.00;5.00;4.00
50866;PMS7003;36839;51.946;21.002;2023-05-10T12:34:33;4.33;4.33;3.00
50866;PMS7003;36839;51.946;21.002;2023-05-10T12:37:03;5.50;4.00;3.00
50866;PMS7003;36839;51.946;21.002;2023-05-10T12:39:42;6.50;4.00;3.00
50866;PMS7003;36839;51.946;21.002;2023-05-10T12:42:10;4.50;4.50;3.00
50866;PMS7003;36839;51.946;21.002;2023-05-10T12:44:48;5.00;5.00;3.50
50866;PMS7003;36839;51.946;21.002;2023-05-10T12:47:27;5.00;3.00;3.00
50866;PMS7003;36839;51.946;21.002;2023-05-10T12:49:57;5.00;4.00;3.00
50866;PMS7003;36839;51.946;21.002;2023-05-10T12:52:36;4.00;4.00;2.00
50866;PMS7003;36839;51.946;21.002;2023-05-10T12:55:05;5.00;5.00;3.00
50866;PMS7003;36839;51.946;21.002;2023-05-10T12:57:33;4.00;4.00;3.00
50866;PMS7003;36839;51.946;21.002;2023-05-10T13:00:04;8.50;4.00;4.00
50866;PMS7003;36839;51.946;21.002;2023-05-10T13:02:32;7.00;4.00;4.00
50866;PMS7003;36839;51.946;21.002;2023-05-10T13:05:00;3.00;3.00;2.00
50866;PMS7003;36839;51.946;21.002;2023-05-10T13:07:28;5.00;5.00;3.00
50866;PMS7003;36839;51.946;21.002;2023-05-10T13:09:58;4.50;4.50;4.00
50866;PMS7003;36839;51.946;21.002;2023-05-10T13:12:27;7.00;4.00;4.00
50866;PMS7003;36839;51.946;21.002;2023-05-10T13:14:56;5.00;5.00;4.00
50866;PMS7003;36839;51.946;21.002;2023-05-10T13:17:25;5.00;3.00;3.00
50866;PMS7003;36839;51.946;21.002;2023-05-10T13:19:55;4.00;4.00;3.00
50866;PMS7003;36839;51.946;21.002;2023-05-10T13:22:22;3.00;3.00;3.00
50866;PMS7003;36839;51.946;21.002;2023-05-10T13:24:49;5.50;4.00;3.50
50866;PMS7003;36839;51.946;21.002;2023-05-10T13:27:27;4.50;4.50;3.50
50866;PMS7003;36839;51.946;21.002;2023-05-10T13:29:57;2.00;1.00;1.00
50866;PMS7003;36839;51.946;21.002;2023-05-10T13:32:37;5.00;5.00;4.00
50866;PMS7003;36839;51.946;21.002;2023-05-10T13:35:11;4.00;4.00;3.00
50866;PMS7003;36839;51.946;21.002;2023-05-10T13:37:39;5.50;4.00;3.00
50866;PMS7003;36839;51.946;21.002;2023-05-10T13:40:08;6.00;5.00;4.00
50866;PMS7003;36839;51.946;21.002;2023-05-10T13:42:37;4.00;4.00;4.00
50866;PMS7003;36839;51.946;21.002;2023-05-10T13:45:05;4.00;4.00;3.00
50866;PMS7003;36839;51.946;21.002;2023-05-10T13:47:35;5.00;5.00;3.50
50866;PMS7003;36839;51.946;21.002;2023-05-10T13:50:06;5.00;3.00;3.00
50866;PMS7003;36839;51.946;21.002;2023-05-10T13:52:34;5.00;4.00;3.33
50866;PMS7003;36839;51.946;21.002;2023-05-10T13:57:29;4.50;3.50;3.50
50866;PMS7003;36839;51.946;21.002;2023-05-10T13:59:58;4.00;4.00;3.33
50866;PMS7003;36839;51.946;21.002;2023-05-10T14:02:27;7.00;4.00;3.00
50866;PMS7003;36839;51.946;21.002;2023-05-10T14:04:55;4.00;4.00;4.00
50866;PMS7003;36839;51.946;21.002;2023-05-10T14:07:22;6.00;5.00;4.00
50866;PMS7003;36839;51.946;21.002;2023-05-10T14:09:54;4.00;4.00;4.00
50866;PMS7003;36839;51.946;21.002;2023-05-10T14:12:22;5.00;5.00;4.00
50866;PMS7003;36839;51.946;21.002;2023-05-10T14:15:01;7.00;4.50;4.00
50866;PMS7003;36839;51.946;21.002;2023-05-10T14:17:40;3.33;1.00;1.00
50866;PMS7003;36839;51.946;21.002;2023-05-10T14:20:08;5.00;3.50;3.50
50866;PMS7003;36839;51.946;21.002;2023-05-10T14:22:38;7.00;5.00;3.50
50866;PMS7003;36839;51.946;21.002;2023-05-10T14:25:05;5.50;5.50;4.00
50866;PMS7003;36839;51.946;21.002;2023-05-10T14:27:36;7.67;5.00;5.00
50866;PMS7003;36839;51.946;21.002;2023-05-10T14:30:07;7.00;5.00;4.00
50866;PMS7003;36839;51.946;21.002;2023-05-10T14:32:36;5.00;5.00;4.00
50866;PMS7003;36839;51.946;21.002;2023-05-10T14:35:05;5.00;5.00;4.00
50866;PMS7003;36839;51.946;21.002;2023-05-10T14:37:34;6.00;5.50;4.50
50866;PMS7003;36839;51.946;21.002;2023-05-10T14:40:03;4.00;4.00;3.50
50866;PMS7003;36839;51.946;21.002;2023-05-10T14:42:34;5.67;4.33;3.67
50866;PMS7003;36839;51.946;21.002;2023-05-10T14:45:03;6.00;4.33;3.33
50866;PMS7003;36839;51.946;21.002;2023-05-10T14:47:35;4.00;4.00;2.00
50866;PMS7003;36839;51.946;21.002;2023-05-10T14:50:04;6.50;5.00;4.00
50866;PMS7003;36839;51.946;21.002;2023-05-10T14:52:34;5.00;5.00;4.00
50866;PMS7003;36839;51.946;21.002;2023-05-10T14:55:03;7.00;4.00;3.00
50866;PMS7003;36839;51.946;21.002;2023-05-10T14:57:33;2.00;2.00;1.50
50866;PMS7003;36839;51.946;21.002;2023-05-10T15:00:04;6.00;5.00;3.00
50866;PMS7003;36839;51.946;21.002;2023-05-10T15:02:35;5.00;4.00;4.00
50866;PMS7003;36839;51.946;21.002;2023-05-10T15:05:03;4.00;4.00;4.00
50866;PMS7003;36839;51.946;21.002;2023-05-10T15:07:30;7.00;5.00;4.00
50866;PMS7003;36839;51.946;21.002;2023-05-10T15:09:58;5.50;4.00;3.00
50866;PMS7003;36839;51.946;21.002;2023-05-10T15:12:27;5.00;5.00;4.00
50866;PMS7003;36839;51.946;21.002;2023-05-10T15:15:00;6.00;4.00;4.00